createdAt,value
2022-12-20T00:01:32.249Z,1.60
2022-12-20T00:04:02.292Z,1.70
2022-12-20T00:06:29.615Z,1.70
2022-12-20T00:08:58.138Z,1.80
2022-12-20T00:11:25.653Z,1.80
2022-12-20T00:13:52.871Z,1.90
2022-12-20T00:16:27.993Z,1.90
2022-12-20T00:18:57.334Z,1.90
2022-12-20T00:21:24.815Z,2.00
2022-12-20T00:23:52.609Z,2.00
2022-12-20T00:26:22.377Z,2.10
2022-12-20T00:28:49.606Z,2.00
2022-12-20T00:31:18.166Z,2.10
2022-12-20T00:33:46.679Z,2.20
2022-12-20T00:36:13.995Z,2.20
2022-12-20T00:38:41.308Z,2.30
2022-12-20T00:41:10.337Z,2.20
2022-12-20T00:43:38.027Z,2.20
2022-12-20T00:46:05.950Z,2.30
2022-12-20T00:48:33.335Z,2.30
2022-12-20T00:51:01.511Z,2.30
2022-12-20T00:53:28.894Z,2.30
2022-12-20T00:55:56.273Z,2.40
2022-12-20T00:58:23.594Z,2.40
2022-12-20T01:00:56.190Z,2.40
2022-12-20T01:03:25.187Z,2.40
2022-12-20T01:05:53.697Z,2.50
2022-12-20T01:08:21.025Z,2.50
2022-12-20T01:10:58.019Z,2.50
2022-12-20T01:13:25.608Z,2.50
2022-12-20T01:15:52.803Z,2.50
2022-12-20T01:18:20.125Z,2.60
2022-12-20T01:20:47.370Z,2.60
2022-12-20T01:23:14.530Z,2.60
2022-12-20T01:25:41.745Z,2.60
2022-12-20T01:28:10.052Z,2.60
2022-12-20T01:30:41.349Z,2.60
2022-12-20T01:33:08.581Z,2.60
2022-12-20T01:35:35.790Z,2.60
2022-12-20T01:38:03.125Z,2.70
2022-12-20T01:40:30.323Z,2.60
2022-12-20T01:42:57.516Z,2.60
2022-12-20T01:45:29.162Z,2.60
2022-12-20T01:47:57.765Z,2.50
2022-12-20T01:50:24.988Z,2.50
2022-12-20T01:52:52.206Z,2.50
2022-12-20T01:55:24.236Z,2.60
2022-12-20T01:57:57.107Z,2.70
2022-12-20T02:00:24.447Z,2.70
2022-12-20T02:02:51.873Z,2.80
2022-12-20T02:05:20.536Z,2.80
2022-12-20T02:07:49.972Z,2.90
2022-12-20T02:10:17.468Z,2.90
2022-12-20T02:12:45.823Z,2.90
2022-12-20T02:15:20.253Z,2.80
2022-12-20T02:18:05.896Z,2.90
2022-12-20T02:20:57.948Z,2.90
2022-12-20T02:24:07.964Z,2.90
2022-12-20T02:27:19.244Z,3.00
2022-12-20T02:30:03.535Z,3.00
2022-12-20T02:33:03.851Z,3.00
2022-12-20T02:35:34.031Z,3.00
2022-12-20T02:38:03.836Z,3.00
2022-12-20T02:40:35.168Z,2.90
2022-12-20T02:43:04.939Z,2.90
2022-12-20T02:45:34.640Z,3.00
2022-12-20T02:48:03.453Z,3.00
2022-12-20T02:50:40.178Z,2.90
2022-12-20T02:53:07.504Z,3.00
2022-12-20T02:55:50.888Z,3.00
2022-12-20T02:58:26.356Z,3.00
2022-12-20T03:00:53.607Z,2.90
2022-12-20T03:03:23.605Z,2.80
2022-12-20T03:05:53.332Z,2.70
2022-12-20T03:08:21.318Z,2.70
2022-12-20T03:10:49.619Z,2.80
2022-12-20T03:13:17.226Z,2.80
2022-12-20T03:15:50.180Z,2.80
2022-12-20T03:18:17.444Z,2.80
2022-12-20T03:20:44.669Z,2.60
2022-12-20T03:23:11.916Z,2.60
2022-12-20T03:25:39.615Z,2.50
2022-12-20T03:28:09.052Z,2.60
2022-12-20T03:30:36.814Z,2.70
2022-12-20T03:33:04.171Z,2.70
2022-12-20T03:35:31.644Z,2.80
2022-12-20T03:37:59.287Z,2.80
2022-12-20T03:40:26.623Z,2.70
2022-12-20T03:42:54.425Z,2.70
2022-12-20T03:45:21.696Z,2.70
2022-12-20T03:47:49.700Z,2.80
2022-12-20T03:50:17.873Z,2.80
2022-12-20T03:52:45.267Z,2.80
2022-12-20T03:55:12.676Z,2.90
2022-12-20T03:57:42.197Z,3.00
2022-12-20T04:00:23.319Z,3.00
2022-12-20T04:02:53.764Z,3.00
2022-12-20T04:05:21.780Z,3.10
2022-12-20T04:07:48.977Z,3.10
2022-12-20T04:10:16.261Z,3.10
2022-12-20T04:12:43.569Z,3.10
2022-12-20T04:15:12.384Z,3.10
2022-12-20T04:17:41.712Z,3.10
2022-12-20T04:20:21.684Z,3.10
2022-12-20T04:22:56.660Z,3.10
2022-12-20T04:25:24.277Z,3.10
2022-12-20T04:27:55.573Z,3.00
2022-12-20T04:30:22.762Z,3.00
2022-12-20T04:32:54.620Z,3.00
2022-12-20T04:35:22.485Z,3.00
2022-12-20T04:37:50.229Z,3.00
2022-12-20T04:40:18.420Z,3.00
2022-12-20T04:42:55.385Z,3.00
2022-12-20T04:45:22.962Z,2.80
2022-12-20T04:47:51.938Z,2.70
2022-12-20T04:50:25.357Z,2.70
2022-12-20T04:53:11.691Z,2.70
2022-12-20T04:55:39.608Z,2.80
2022-12-20T04:58:07.982Z,2.80
2022-12-20T05:00:37.622Z,2.80
2022-12-20T05:03:18.096Z,2.90
2022-12-20T05:05:45.475Z,2.90
2022-12-20T05:08:12.818Z,2.90
2022-12-20T05:10:40.247Z,3.00
2022-12-20T05:13:09.442Z,3.00
2022-12-20T05:15:43.423Z,3.00
2022-12-20T05:18:11.319Z,2.90
2022-12-20T05:21:11.275Z,2.80
2022-12-20T05:23:57.927Z,2.80
2022-12-20T05:26:31.455Z,2.80
2022-12-20T05:28:58.689Z,2.70
2022-12-20T05:31:27.775Z,2.70
2022-12-20T05:33:55.289Z,2.70
2022-12-20T05:36:25.392Z,2.70
2022-12-20T05:38:58.095Z,2.80
2022-12-20T05:41:29.478Z,2.70
2022-12-20T05:43:56.708Z,2.70
2022-12-20T05:46:25.406Z,2.70
2022-12-20T05:49:01.062Z,2.70
2022-12-20T05:51:28.813Z,2.80
2022-12-20T05:54:19.260Z,2.70
2022-12-20T05:56:53.333Z,2.80
2022-12-20T05:59:25.919Z,2.80
2022-12-20T06:01:53.193Z,2.70
2022-12-20T06:04:21.150Z,2.70
2022-12-20T06:06:49.181Z,2.70
2022-12-20T06:09:19.161Z,2.70
2022-12-20T06:11:54.904Z,2.60
2022-12-20T06:14:22.703Z,2.70
2022-12-20T06:16:50.052Z,2.70
2022-12-20T06:19:21.639Z,2.80
2022-12-20T06:21:50.649Z,2.70
2022-12-20T06:24:25.215Z,2.70
2022-12-20T06:26:53.352Z,2.80
2022-12-20T06:29:21.573Z,2.80
2022-12-20T06:31:52.607Z,2.90
2022-12-20T06:34:20.445Z,2.90
2022-12-20T06:36:47.745Z,3.00
2022-12-20T06:39:20.448Z,3.10
2022-12-20T06:41:56.135Z,3.10
2022-12-20T06:44:23.381Z,3.20
2022-12-20T06:46:51.562Z,3.20
2022-12-20T06:49:19.415Z,3.30
2022-12-20T06:51:47.657Z,3.30
2022-12-20T06:54:15.671Z,3.30
2022-12-20T06:56:42.920Z,3.40
2022-12-20T06:59:12.397Z,3.40
2022-12-20T07:01:39.755Z,3.50
2022-12-20T07:04:07.040Z,3.50
2022-12-20T07:06:34.452Z,3.50
2022-12-20T07:09:02.237Z,3.50
2022-12-20T07:11:29.431Z,3.60
2022-12-20T07:13:57.251Z,3.60
2022-12-20T07:16:24.759Z,3.60
2022-12-20T07:18:53.502Z,3.60
2022-12-20T07:21:21.124Z,3.50
2022-12-20T07:23:48.326Z,3.60
2022-12-20T07:26:15.607Z,3.60
2022-12-20T07:28:42.867Z,3.70
2022-12-20T07:31:10.069Z,3.70
2022-12-20T07:33:37.416Z,3.80
2022-12-20T07:36:10.215Z,3.80
2022-12-20T07:38:37.555Z,3.80
2022-12-20T07:41:12.280Z,3.80
2022-12-20T07:43:39.407Z,3.70
2022-12-20T07:46:07.002Z,3.70
2022-12-20T07:48:34.406Z,3.70
2022-12-20T07:51:13.205Z,3.70
2022-12-20T07:53:43.459Z,3.80
2022-12-20T07:56:11.318Z,3.90
2022-12-20T07:58:38.736Z,3.90
2022-12-20T08:01:06.022Z,4.00
2022-12-20T08:03:46.082Z,4.20
2022-12-20T08:06:13.491Z,4.20
2022-12-20T08:08:41.858Z,4.30
2022-12-20T08:11:09.556Z,4.30
2022-12-20T08:13:40.955Z,4.40
2022-12-20T08:16:13.231Z,4.40
2022-12-20T08:18:40.539Z,4.30
2022-12-20T08:21:08.409Z,4.30
2022-12-20T08:23:35.633Z,4.40
2022-12-20T08:26:02.828Z,4.60
2022-12-20T08:28:30.064Z,4.70
2022-12-20T08:31:04.801Z,4.80
2022-12-20T08:33:33.090Z,4.90
2022-12-20T08:36:02.358Z,4.90
2022-12-20T08:38:30.904Z,4.90
2022-12-20T08:41:05.974Z,5.10
2022-12-20T08:43:33.747Z,5.00
2022-12-20T08:46:01.029Z,5.00
2022-12-20T08:48:28.395Z,5.10
2022-12-20T08:50:56.913Z,5.20
2022-12-20T08:53:24.318Z,5.30
2022-12-20T08:55:51.536Z,5.40
2022-12-20T08:58:19.041Z,5.40
2022-12-20T09:00:46.915Z,5.50
2022-12-20T09:03:15.278Z,5.60
2022-12-20T09:05:48.893Z,5.60
2022-12-20T09:08:16.810Z,5.80
2022-12-20T09:10:43.996Z,5.70
2022-12-20T09:13:11.346Z,5.90
2022-12-20T09:15:38.617Z,6.00
2022-12-20T09:18:05.947Z,6.10
2022-12-20T09:20:33.151Z,6.20
2022-12-20T09:23:00.435Z,6.30
2022-12-20T09:25:28.039Z,6.40
2022-12-20T09:27:56.806Z,6.40
2022-12-20T09:30:24.194Z,6.40
2022-12-20T09:32:51.419Z,6.40
2022-12-20T09:35:23.024Z,6.50
2022-12-20T09:37:50.800Z,6.60
2022-12-20T09:40:19.373Z,6.70
2022-12-20T09:42:47.245Z,6.80
2022-12-20T09:45:26.312Z,6.80
2022-12-20T09:47:53.551Z,6.90
2022-12-20T09:50:21.724Z,6.90
2022-12-20T09:52:56.038Z,6.90
2022-12-20T09:55:44.389Z,6.90
2022-12-20T09:58:37.902Z,7.00
2022-12-20T10:01:24.988Z,7.00
2022-12-20T10:03:53.468Z,7.10
2022-12-20T10:06:39.459Z,6.80
2022-12-20T10:09:26.455Z,6.80
2022-12-20T10:12:15.674Z,6.90
2022-12-20T10:15:12.221Z,6.90
2022-12-20T10:18:17.134Z,7.00
2022-12-20T10:20:47.354Z,7.10
2022-12-20T10:23:32.679Z,7.40
2022-12-20T10:26:01.010Z,7.60
2022-12-20T10:28:30.157Z,7.80
2022-12-20T10:31:26.987Z,7.90
2022-12-20T10:33:54.234Z,8.00
2022-12-20T10:36:28.415Z,8.00
2022-12-20T10:38:57.075Z,8.10
2022-12-20T10:41:30.903Z,8.00
2022-12-20T10:44:05.973Z,8.00
2022-12-20T10:46:38.900Z,8.00
2022-12-20T10:49:33.567Z,8.20
2022-12-20T10:52:21.059Z,8.30
2022-12-20T10:54:48.251Z,8.40
2022-12-20T10:57:23.167Z,8.50
2022-12-20T10:59:56.298Z,8.60
2022-12-20T11:02:42.752Z,8.60
2022-12-20T11:05:18.644Z,8.50
2022-12-20T11:08:33.440Z,8.60
2022-12-20T11:10:42.164Z,8.60
2022-12-20T11:13:37.500Z,8.50
2022-12-20T11:16:04.995Z,8.60
2022-12-20T11:18:40.330Z,8.70
2022-12-20T11:21:27.422Z,8.80
2022-12-20T11:24:15.853Z,9.00
2022-12-20T11:27:15.285Z,9.10
2022-12-20T11:29:58.315Z,9.20
2022-12-20T11:32:49.081Z,9.30
2022-12-20T11:35:32.592Z,9.30
2022-12-20T11:38:25.581Z,9.50
2022-12-20T11:40:58.499Z,9.50
2022-12-20T11:44:23.771Z,9.60
2022-12-20T11:46:54.821Z,9.80
2022-12-20T11:49:41.948Z,9.90
2022-12-20T11:52:41.180Z,10.00
2022-12-20T11:55:08.346Z,10.10
2022-12-20T11:58:16.432Z,10.00
2022-12-20T12:00:31.937Z,9.90
2022-12-20T12:03:07.622Z,9.90
2022-12-20T12:05:44.466Z,9.90
2022-12-20T12:08:18.611Z,9.90
2022-12-20T12:11:32.010Z,10.00
2022-12-20T12:14:00.252Z,10.00
2022-12-20T12:16:39.474Z,9.90
2022-12-20T12:19:09.391Z,9.90
2022-12-20T12:21:47.977Z,9.90
2022-12-20T12:24:30.279Z,9.80
2022-12-20T12:26:59.024Z,9.80
2022-12-20T12:29:26.284Z,9.80
2022-12-20T12:31:54.954Z,9.70
2022-12-20T12:34:49.954Z,9.70
2022-12-20T12:37:46.172Z,9.70
2022-12-20T12:40:16.509Z,9.60
2022-12-20T12:43:05.719Z,9.60
2022-12-20T12:45:37.480Z,9.60
2022-12-20T12:48:22.177Z,9.70
2022-12-20T12:50:54.396Z,9.70
2022-12-20T12:53:24.341Z,9.60
2022-12-20T12:56:02.276Z,9.60
2022-12-20T12:58:46.355Z,9.60
2022-12-20T13:01:46.585Z,9.60
2022-12-20T13:04:20.064Z,9.60
2022-12-20T13:06:47.246Z,9.50
2022-12-20T13:09:24.814Z,9.40
2022-12-20T13:12:01.040Z,9.40
2022-12-20T13:14:30.619Z,9.40
2022-12-20T13:17:20.716Z,9.30
2022-12-20T13:19:54.857Z,9.30
2022-12-20T13:22:25.717Z,9.20
2022-12-20T13:24:55.687Z,9.10
2022-12-20T13:27:30.884Z,8.90
2022-12-20T13:30:07.315Z,8.70
2022-12-20T13:32:56.477Z,8.70
2022-12-20T13:35:27.739Z,8.50
2022-12-20T13:38:05.684Z,8.50
2022-12-20T13:40:44.237Z,8.50
2022-12-20T13:43:20.740Z,8.40
2022-12-20T13:46:00.346Z,8.40
2022-12-20T13:48:33.745Z,8.30
2022-12-20T13:51:01.006Z,8.20
2022-12-20T13:53:28.207Z,8.10
2022-12-20T13:55:55.477Z,8.10
2022-12-20T13:58:24.251Z,8.10
2022-12-20T14:00:51.652Z,8.10
2022-12-20T14:03:25.643Z,8.00
2022-12-20T14:05:58.582Z,8.10
2022-12-20T14:08:30.198Z,8.10
2022-12-20T14:11:27.428Z,8.20
2022-12-20T14:13:59.309Z,8.30
2022-12-20T14:16:27.979Z,8.40
2022-12-20T14:19:02.435Z,8.40
2022-12-20T14:21:29.854Z,8.30
2022-12-20T14:23:58.438Z,8.30
2022-12-20T14:26:30.497Z,8.20
2022-12-20T14:28:58.445Z,8.10
2022-12-20T14:31:37.699Z,8.00
2022-12-20T14:34:29.790Z,8.00
2022-12-20T14:37:19.704Z,7.90
2022-12-20T14:40:10.143Z,7.80
2022-12-20T14:42:38.877Z,7.50
2022-12-20T14:45:09.106Z,7.10
2022-12-20T14:47:37.585Z,7.00
2022-12-20T14:50:18.565Z,6.90
2022-12-20T14:52:45.771Z,6.80
2022-12-20T14:55:19.665Z,6.80
2022-12-20T14:57:52.087Z,6.80
2022-12-20T15:00:27.898Z,6.80
2022-12-20T15:03:01.300Z,6.80
2022-12-20T15:05:35.169Z,6.80
2022-12-20T15:08:33.183Z,6.60
2022-12-20T15:11:22.818Z,6.40
2022-12-20T15:13:52.507Z,6.30
2022-12-20T15:16:24.358Z,6.10
2022-12-20T15:18:53.461Z,6.10
2022-12-20T15:21:30.618Z,6.10
2022-12-20T15:23:59.401Z,6.20
2022-12-20T15:26:27.171Z,6.10
2022-12-20T15:28:54.539Z,6.00
2022-12-20T15:31:30.881Z,5.90
2022-12-20T15:34:02.442Z,5.90
2022-12-20T15:36:29.934Z,5.90
2022-12-20T15:39:14.314Z,5.90
2022-12-20T15:41:44.858Z,5.70
2022-12-20T15:44:23.571Z,5.70
2022-12-20T15:46:51.287Z,5.60
2022-12-20T15:49:23.215Z,5.40
2022-12-20T15:51:51.464Z,5.30
2022-12-20T15:54:34.679Z,5.20
2022-12-20T15:57:09.286Z,5.10
2022-12-20T16:02:28.363Z,5.20
2022-12-20T16:04:55.933Z,4.90
2022-12-20T16:07:23.588Z,4.90
2022-12-20T16:09:50.966Z,5.00
2022-12-20T16:12:19.894Z,5.00
2022-12-20T16:14:47.482Z,4.90
2022-12-20T16:17:15.009Z,4.90
2022-12-20T16:19:42.686Z,5.00
2022-12-20T16:22:17.886Z,4.80
2022-12-20T16:24:45.649Z,4.70
2022-12-20T16:27:12.865Z,4.70
2022-12-20T16:29:41.363Z,4.70
2022-12-20T16:32:15.643Z,4.70
2022-12-20T16:34:43.157Z,4.80
2022-12-20T16:37:11.707Z,4.70
2022-12-20T16:39:39.018Z,4.80
2022-12-20T16:42:21.944Z,4.70
2022-12-20T16:44:52.670Z,4.70
2022-12-20T16:47:19.992Z,4.70
2022-12-20T16:49:52.269Z,4.60
2022-12-20T16:52:22.178Z,4.60
2022-12-20T16:54:49.960Z,4.60
2022-12-20T16:57:17.171Z,4.60
2022-12-20T16:59:44.583Z,4.70
2022-12-20T17:02:32.752Z,4.70
2022-12-20T17:05:00.397Z,4.70
2022-12-20T17:07:27.723Z,4.70
2022-12-20T17:10:12.848Z,4.70
2022-12-20T17:12:40.086Z,4.70
2022-12-20T17:15:10.542Z,4.50
2022-12-20T17:17:37.719Z,4.50
2022-12-20T17:20:05.836Z,4.40
2022-12-20T17:22:33.012Z,4.30
2022-12-20T17:25:00.227Z,4.40
2022-12-20T17:27:27.410Z,4.40
2022-12-20T17:29:54.730Z,4.50
2022-12-20T17:32:23.578Z,4.50
2022-12-20T17:34:50.932Z,4.50
2022-12-20T17:37:18.316Z,4.50
2022-12-20T17:39:45.632Z,4.40
2022-12-20T17:42:13.587Z,4.20
2022-12-20T17:44:40.812Z,4.10
2022-12-20T17:47:08.107Z,4.10
2022-12-20T17:49:35.301Z,4.20
2022-12-20T17:52:02.488Z,4.20
2022-12-20T17:54:35.167Z,4.20
2022-12-20T17:57:06.116Z,4.30
2022-12-20T17:59:33.301Z,4.20
2022-12-20T18:02:00.655Z,4.30
2022-12-20T18:04:28.158Z,4.30
2022-12-20T18:06:56.606Z,4.40
2022-12-20T18:09:23.813Z,4.40
2022-12-20T18:11:51.034Z,4.30
2022-12-20T18:14:18.211Z,4.40
2022-12-20T18:16:45.846Z,4.40
2022-12-20T18:19:17.351Z,4.20
2022-12-20T18:21:45.027Z,4.10
2022-12-20T18:24:13.267Z,4.10
2022-12-20T18:26:40.891Z,4.10
2022-12-20T18:29:08.931Z,4.10
2022-12-20T18:31:36.197Z,4.10
2022-12-20T18:34:03.715Z,4.20
2022-12-20T18:36:32.651Z,4.30
2022-12-20T18:39:00.155Z,4.30
2022-12-20T18:41:29.341Z,4.30
2022-12-20T18:43:58.504Z,4.10
2022-12-20T18:46:25.852Z,4.00
2022-12-20T18:48:54.717Z,4.10
2022-12-20T18:51:23.743Z,4.20
2022-12-20T18:53:53.799Z,4.30
2022-12-20T18:56:24.788Z,4.20
2022-12-20T18:58:52.189Z,4.20
2022-12-20T19:01:21.465Z,4.20
2022-12-20T19:03:50.422Z,4.10
2022-12-20T19:06:17.797Z,4.20
2022-12-20T19:08:45.025Z,4.20
2022-12-20T19:11:14.158Z,4.10
2022-12-20T19:13:41.841Z,4.10
2022-12-20T19:16:12.926Z,4.10
2022-12-20T19:18:41.076Z,4.10
2022-12-20T19:21:30.311Z,4.10
2022-12-20T19:23:58.912Z,4.20
2022-12-20T19:26:30.286Z,4.20
2022-12-20T19:28:57.519Z,4.20
2022-12-20T19:31:32.037Z,4.10
2022-12-20T19:34:03.647Z,4.10
2022-12-20T19:36:36.073Z,4.20
2022-12-20T19:39:06.609Z,4.20
2022-12-20T19:41:34.239Z,4.20
2022-12-20T19:44:01.596Z,4.20
2022-12-20T19:46:30.135Z,4.30
2022-12-20T19:48:58.210Z,4.20
2022-12-20T19:51:25.672Z,4.20
2022-12-20T19:53:53.611Z,4.30
2022-12-20T19:56:25.945Z,4.30
2022-12-20T19:58:53.373Z,4.40
2022-12-20T20:01:22.784Z,4.40
2022-12-20T20:03:50.324Z,4.40
2022-12-20T20:06:17.629Z,4.50
2022-12-20T20:08:45.590Z,4.50
2022-12-20T20:11:12.830Z,4.50
2022-12-20T20:13:40.379Z,4.60
2022-12-20T20:16:07.957Z,4.50
2022-12-20T20:18:36.179Z,4.40
2022-12-20T20:21:08.179Z,4.30
2022-12-20T20:23:36.639Z,4.30
2022-12-20T20:26:07.264Z,4.30
2022-12-20T20:28:41.837Z,4.20
2022-12-20T20:31:13.486Z,4.30
2022-12-20T20:33:40.961Z,4.30
2022-12-20T20:36:08.628Z,4.30
2022-12-20T20:38:35.886Z,4.40
2022-12-20T20:41:03.555Z,4.40
2022-12-20T20:43:36.464Z,4.50
2022-12-20T20:46:07.087Z,4.40
2022-12-20T20:48:34.831Z,4.50
2022-12-20T20:51:02.085Z,4.50
2022-12-20T20:53:33.410Z,4.40
2022-12-20T20:56:02.818Z,4.50
2022-12-20T20:58:30.395Z,4.50
2022-12-20T21:01:01.813Z,4.60
2022-12-20T21:03:29.814Z,4.60
2022-12-20T21:06:34.965Z,4.60
2022-12-20T21:08:44.643Z,4.60
2022-12-20T21:11:12.088Z,4.70
2022-12-20T21:13:39.544Z,4.70
2022-12-20T21:16:16.017Z,4.50
2022-12-20T21:18:43.415Z,4.40
2022-12-20T21:21:11.887Z,4.50
2022-12-20T21:23:39.708Z,4.50
2022-12-20T21:26:07.625Z,4.50
2022-12-20T21:28:35.551Z,4.60
2022-12-20T21:31:04.125Z,4.60
2022-12-20T21:33:31.433Z,4.70
2022-12-20T21:36:10.547Z,4.70
2022-12-20T21:38:37.907Z,4.70
2022-12-20T21:41:10.356Z,4.60
2022-12-20T21:43:37.751Z,4.60
2022-12-20T21:46:05.265Z,4.50
2022-12-20T21:48:32.447Z,4.50
2022-12-20T21:51:09.878Z,4.50
2022-12-20T21:53:44.255Z,4.60
2022-12-20T21:56:11.533Z,4.60
2022-12-20T21:58:38.733Z,4.60
2022-12-20T22:01:06.335Z,4.60
2022-12-20T22:03:33.772Z,4.70
2022-12-20T22:06:01.184Z,4.70
2022-12-20T22:08:28.763Z,4.60
2022-12-20T22:11:04.305Z,4.60
2022-12-20T22:13:35.663Z,4.60
2022-12-20T22:16:12.696Z,4.60
2022-12-20T22:18:40.405Z,4.60
2022-12-20T22:21:10.209Z,4.70
2022-12-20T22:23:37.706Z,4.70
2022-12-20T22:26:09.743Z,4.70
2022-12-20T22:28:37.584Z,4.60
2022-12-20T22:31:08.702Z,4.60
2022-12-20T22:33:36.937Z,4.60
2022-12-20T22:36:04.427Z,4.50
2022-12-20T22:38:31.627Z,4.50
2022-12-20T22:41:12.835Z,4.50
2022-12-20T22:43:41.042Z,4.50
2022-12-20T22:46:10.415Z,4.50
2022-12-20T22:48:38.119Z,4.50
2022-12-20T22:51:07.639Z,4.50
2022-12-20T22:53:35.364Z,4.60
2022-12-20T22:56:02.727Z,4.60
2022-12-20T22:58:30.282Z,4.60
2022-12-20T23:00:58.335Z,4.60
2022-12-20T23:03:26.156Z,4.50
2022-12-20T23:06:03.791Z,4.50
2022-12-20T23:08:32.416Z,4.40
2022-12-20T23:11:17.978Z,4.40
2022-12-20T23:14:03.658Z,4.30
2022-12-20T23:16:31.001Z,4.30
2022-12-20T23:19:00.087Z,4.30
2022-12-20T23:21:46.265Z,4.30
2022-12-20T23:24:14.644Z,4.30
2022-12-20T23:26:42.015Z,4.30
2022-12-20T23:29:09.430Z,4.30
2022-12-20T23:31:36.681Z,4.30
2022-12-20T23:34:04.068Z,4.40
2022-12-20T23:36:33.154Z,4.40
2022-12-20T23:39:00.595Z,4.40
2022-12-20T23:41:28.014Z,4.50
2022-12-20T23:43:55.572Z,4.50
2022-12-20T23:46:22.920Z,4.30
2022-12-20T23:48:51.137Z,4.40
2022-12-20T23:51:18.813Z,4.40
2022-12-20T23:53:46.010Z,4.30
2022-12-20T23:56:18.159Z,4.30
2022-12-20T23:58:46.089Z,4.20
